sensor_id;sensor_type;location;lat;lon;timestamp;P1;durP1;ratioP1;P2;durP2;ratioP2
3407;SDS011;1717;50.240;8.406;2023-02-12T00:00:01;74.67;;;30.47;;
3407;SDS011;1717;50.240;8.406;2023-02-12T00:02:31;69.60;;;34.13;;
3407;SDS011;1717;50.240;8.406;2023-02-12T00:04:58;64.73;;;29.90;;
3407;SDS011;1717;50.240;8.406;2023-02-12T00:07:28;70.43;;;32.40;;
3407;SDS011;1717;50.240;8.406;2023-02-12T00:09:57;62.57;;;29.30;;
3407;SDS011;1717;50.240;8.406;2023-02-12T00:12:24;48.67;;;24.83;;
3407;SDS011;1717;50.240;8.406;2023-02-12T00:14:51;53.43;;;26.90;;
3407;SDS011;1717;50.240;8.406;2023-02-12T00:17:18;47.03;;;24.20;;
3407;SDS011;1717;50.240;8.406;2023-02-12T00:19:46;44.60;;;24.53;;
3407;SDS011;1717;50.240;8.406;2023-02-12T00:22:13;49.90;;;23.80;;
3407;SDS011;1717;50.240;8.406;2023-02-12T00:24:40;45.53;;;23.73;;
3407;SDS011;1717;50.240;8.406;2023-02-12T00:27:09;43.63;;;22.13;;
3407;SDS011;1717;50.240;8.406;2023-02-12T00:29:36;46.90;;;24.23;;
3407;SDS011;1717;50.240;8.406;2023-02-12T00:32:03;51.87;;;23.50;;
3407;SDS011;1717;50.240;8.406;2023-02-12T00:34:30;51.53;;;25.27;;
3407;SDS011;1717;50.240;8.406;2023-02-12T00:36:58;43.60;;;22.50;;
3407;SDS011;1717;50.240;8.406;2023-02-12T00:39:25;51.03;;;25.40;;
3407;SDS011;1717;50.240;8.406;2023-02-12T00:41:53;41.33;;;21.10;;
3407;SDS011;1717;50.240;8.406;2023-02-12T00:44:21;52.17;;;25.57;;
3407;SDS011;1717;50.240;8.406;2023-02-12T00:46:49;54.07;;;25.57;;
3407;SDS011;1717;50.240;8.406;2023-02-12T00:49:16;59.80;;;24.67;;
3407;SDS011;1717;50.240;8.406;2023-02-12T00:51:44;50.27;;;23.97;;
3407;SDS011;1717;50.240;8.406;2023-02-12T00:54:11;55.17;;;25.17;;
3407;SDS011;1717;50.240;8.406;2023-02-12T00:56:39;55.30;;;25.77;;
3407;SDS011;1717;50.240;8.406;2023-02-12T00:59:07;61.77;;;26.43;;
3407;SDS011;1717;50.240;8.406;2023-02-12T01:01:35;53.37;;;26.53;;
3407;SDS011;1717;50.240;8.406;2023-02-12T01:04:04;65.60;;;29.10;;
3407;SDS011;1717;50.240;8.406;2023-02-12T01:06:31;55.70;;;27.07;;
3407;SDS011;1717;50.240;8.406;2023-02-12T01:08:59;62.17;;;27.43;;
3407;SDS011;1717;50.240;8.406;2023-02-12T01:11:26;57.87;;;27.30;;
3407;SDS011;1717;50.240;8.406;2023-02-12T01:13:54;60.37;;;26.43;;
3407;SDS011;1717;50.240;8.406;2023-02-12T01:16:22;56.07;;;27.23;;
3407;SDS011;1717;50.240;8.406;2023-02-12T01:18:52;55.97;;;26.00;;
3407;SDS011;1717;50.240;8.406;2023-02-12T01:21:21;51.40;;;26.30;;
3407;SDS011;1717;50.240;8.406;2023-02-12T01:23:49;65.47;;;29.90;;
3407;SDS011;1717;50.240;8.406;2023-02-12T01:26:17;65.07;;;27.27;;
3407;SDS011;1717;50.240;8.406;2023-02-12T01:28:47;88.20;;;28.67;;
3407;SDS011;1717;50.240;8.406;2023-02-12T01:31:17;88.40;;;32.63;;
3407;SDS011;1717;50.240;8.406;2023-02-12T01:33:46;84.77;;;35.90;;
3407;SDS011;1717;50.240;8.406;2023-02-12T01:36:20;116.03;;;36.40;;
3407;SDS011;1717;50.240;8.406;2023-02-12T01:38:47;130.10;;;43.30;;
3407;SDS011;1717;50.240;8.406;2023-02-12T01:41:16;115.33;;;39.70;;
3407;SDS011;1717;50.240;8.406;2023-02-12T01:43:44;114.30;;;41.93;;
3407;SDS011;1717;50.240;8.406;2023-02-12T01:46:12;124.70;;;42.50;;
3407;SDS011;1717;50.240;8.406;2023-02-12T01:48:41;118.07;;;38.10;;
3407;SDS011;1717;50.240;8.406;2023-02-12T01:51:13;115.57;;;39.87;;
3407;SDS011;1717;50.240;8.406;2023-02-12T01:53:46;114.87;;;41.43;;
3407;SDS011;1717;50.240;8.406;2023-02-12T01:56:16;154.13;;;37.90;;
3407;SDS011;1717;50.240;8.406;2023-02-12T01:58:44;125.03;;;36.63;;
3407;SDS011;1717;50.240;8.406;2023-02-12T02:01:14;93.13;;;34.73;;
3407;SDS011;1717;50.240;8.406;2023-02-12T02:03:45;87.77;;;33.00;;
3407;SDS011;1717;50.240;8.406;2023-02-12T02:06:18;99.83;;;38.77;;
3407;SDS011;1717;50.240;8.406;2023-02-12T02:08:51;86.17;;;35.70;;
3407;SDS011;1717;50.240;8.406;2023-02-12T02:11:18;128.43;;;36.83;;
3407;SDS011;1717;50.240;8.406;2023-02-12T02:14:03;112.80;;;36.87;;
3407;SDS011;1717;50.240;8.406;2023-02-12T02:16:50;150.30;;;38.93;;
3407;SDS011;1717;50.240;8.406;2023-02-12T02:19:28;142.67;;;40.70;;
3407;SDS011;1717;50.240;8.406;2023-02-12T02:22:09;133.03;;;35.13;;
3407;SDS011;1717;50.240;8.406;2023-02-12T02:27:39;85.13;;;34.87;;
3407;SDS011;1717;50.240;8.406;2023-02-12T02:33:06;115.43;;;39.10;;
3407;SDS011;1717;50.240;8.406;2023-02-12T02:35:40;105.57;;;35.73;;
3407;SDS011;1717;50.240;8.406;2023-02-12T02:38:18;116.70;;;37.43;;
3407;SDS011;1717;50.240;8.406;2023-02-12T02:40:52;108.03;;;36.40;;
3407;SDS011;1717;50.240;8.406;2023-02-12T02:43:26;88.47;;;34.37;;
3407;SDS011;1717;50.240;8.406;2023-02-12T02:45:58;114.80;;;38.77;;
3407;SDS011;1717;50.240;8.406;2023-02-12T02:48:30;119.37;;;38.33;;
3407;SDS011;1717;50.240;8.406;2023-02-12T02:51:01;102.20;;;33.13;;
3407;SDS011;1717;50.240;8.406;2023-02-12T02:53:32;89.43;;;34.90;;
3407;SDS011;1717;50.240;8.406;2023-02-12T02:56:05;113.40;;;34.87;;
3407;SDS011;1717;50.240;8.406;2023-02-12T02:58:34;354.10;;;54.40;;
3407;SDS011;1717;50.240;8.406;2023-02-12T03:01:08;108.23;;;40.50;;
3407;SDS011;1717;50.240;8.406;2023-02-12T03:03:40;121.57;;;35.77;;
3407;SDS011;1717;50.240;8.406;2023-02-12T03:06:12;118.77;;;37.90;;
3407;SDS011;1717;50.240;8.406;2023-02-12T03:08:45;122.77;;;38.30;;
3407;SDS011;1717;50.240;8.406;2023-02-12T03:11:23;104.17;;;35.40;;
3407;SDS011;1717;50.240;8.406;2023-02-12T03:13:54;101.87;;;33.93;;
3407;SDS011;1717;50.240;8.406;2023-02-12T03:16:31;87.63;;;34.37;;
3407;SDS011;1717;50.240;8.406;2023-02-12T03:19:02;102.43;;;36.90;;
3407;SDS011;1717;50.240;8.406;2023-02-12T03:21:36;103.30;;;32.30;;
3407;SDS011;1717;50.240;8.406;2023-02-12T03:24:10;94.73;;;33.57;;
3407;SDS011;1717;50.240;8.406;2023-02-12T03:26:42;82.83;;;29.27;;
3407;SDS011;1717;50.240;8.406;2023-02-12T03:29:13;84.87;;;31.77;;
3407;SDS011;1717;50.240;8.406;2023-02-12T03:31:45;82.50;;;31.77;;
3407;SDS011;1717;50.240;8.406;2023-02-12T03:34:23;65.10;;;29.50;;
3407;SDS011;1717;50.240;8.406;2023-02-12T03:36:56;65.50;;;30.10;;
3407;SDS011;1717;50.240;8.406;2023-02-12T03:39:29;57.43;;;25.53;;
3407;SDS011;1717;50.240;8.406;2023-02-12T03:42:02;67.93;;;26.97;;
3407;SDS011;1717;50.240;8.406;2023-02-12T03:44:37;67.60;;;27.00;;
3407;SDS011;1717;50.240;8.406;2023-02-12T03:47:24;70.17;;;27.20;;
3407;SDS011;1717;50.240;8.406;2023-02-12T03:49:59;64.10;;;26.93;;
3407;SDS011;1717;50.240;8.406;2023-02-12T03:52:31;69.73;;;26.00;;
3407;SDS011;1717;50.240;8.406;2023-02-12T03:54:59;67.00;;;28.20;;
3407;SDS011;1717;50.240;8.406;2023-02-12T03:57:28;53.80;;;25.10;;
3407;SDS011;1717;50.240;8.406;2023-02-12T03:59:59;61.67;;;24.97;;
3407;SDS011;1717;50.240;8.406;2023-02-12T04:02:32;81.93;;;29.47;;
3407;SDS011;1717;50.240;8.406;2023-02-12T04:05:02;67.83;;;27.23;;
3407;SDS011;1717;50.240;8.406;2023-02-12T04:07:30;70.70;;;29.50;;
3407;SDS011;1717;50.240;8.406;2023-02-12T04:09:58;70.60;;;26.97;;
3407;SDS011;1717;50.240;8.406;2023-02-12T04:12:29;88.43;;;31.93;;
3407;SDS011;1717;50.240;8.406;2023-02-12T04:15:10;71.43;;;28.57;;
3407;SDS011;1717;50.240;8.406;2023-02-12T04:18:00;78.90;;;29.97;;
3407;SDS011;1717;50.240;8.406;2023-02-12T04:20:41;73.57;;;28.00;;
3407;SDS011;1717;50.240;8.406;2023-02-12T04:23:16;71.77;;;30.30;;
3407;SDS011;1717;50.240;8.406;2023-02-12T04:26:00;57.67;;;26.27;;
3407;SDS011;1717;50.240;8.406;2023-02-12T04:28:34;63.17;;;24.70;;
3407;SDS011;1717;50.240;8.406;2023-02-12T04:31:12;50.07;;;23.97;;
3407;SDS011;1717;50.240;8.406;2023-02-12T04:33:50;69.63;;;26.37;;
3407;SDS011;1717;50.240;8.406;2023-02-12T04:36:26;58.27;;;26.47;;
3407;SDS011;1717;50.240;8.406;2023-02-12T04:38:59;60.00;;;24.57;;
3407;SDS011;1717;50.240;8.406;2023-02-12T04:41:30;56.43;;;23.27;;
3407;SDS011;1717;50.240;8.406;2023-02-12T04:43:57;53.00;;;24.30;;
3407;SDS011;1717;50.240;8.406;2023-02-12T04:46:24;53.00;;;23.47;;
3407;SDS011;1717;50.240;8.406;2023-02-12T04:48:56;51.57;;;23.20;;
3407;SDS011;1717;50.240;8.406;2023-02-12T04:51:24;51.70;;;22.23;;
3407;SDS011;1717;50.240;8.406;2023-02-12T04:53:51;55.53;;;22.33;;
3407;SDS011;1717;50.240;8.406;2023-02-12T04:56:18;50.50;;;23.80;;
3407;SDS011;1717;50.240;8.406;2023-02-12T04:58:45;55.87;;;23.00;;
3407;SDS011;1717;50.240;8.406;2023-02-12T05:01:12;56.97;;;23.70;;
3407;SDS011;1717;50.240;8.406;2023-02-12T05:03:42;54.90;;;23.83;;
3407;SDS011;1717;50.240;8.406;2023-02-12T05:06:11;51.03;;;22.73;;
3407;SDS011;1717;50.240;8.406;2023-02-12T05:08:38;60.33;;;25.90;;
3407;SDS011;1717;50.240;8.406;2023-02-12T05:11:05;53.93;;;24.00;;
3407;SDS011;1717;50.240;8.406;2023-02-12T05:13:34;51.73;;;21.57;;
3407;SDS011;1717;50.240;8.406;2023-02-12T05:16:02;59.63;;;24.13;;
3407;SDS011;1717;50.240;8.406;2023-02-12T05:18:30;63.97;;;24.13;;
3407;SDS011;1717;50.240;8.406;2023-02-12T05:20:57;72.77;;;28.60;;
3407;SDS011;1717;50.240;8.406;2023-02-12T05:23:26;66.77;;;25.57;;
3407;SDS011;1717;50.240;8.406;2023-02-12T05:25:57;61.80;;;25.90;;
3407;SDS011;1717;50.240;8.406;2023-02-12T05:28:25;82.97;;;29.47;;
3407;SDS011;1717;50.240;8.406;2023-02-12T05:30:52;63.17;;;27.53;;
3407;SDS011;1717;50.240;8.406;2023-02-12T05:33:19;67.83;;;27.73;;
3407;SDS011;1717;50.240;8.406;2023-02-12T05:35:46;63.60;;;25.87;;
3407;SDS011;1717;50.240;8.406;2023-02-12T05:38:14;57.90;;;23.47;;
3407;SDS011;1717;50.240;8.406;2023-02-12T05:40:42;58.73;;;24.23;;
3407;SDS011;1717;50.240;8.406;2023-02-12T05:43:09;63.53;;;24.47;;
3407;SDS011;1717;50.240;8.406;2023-02-12T05:45:36;62.47;;;26.80;;
3407;SDS011;1717;50.240;8.406;2023-02-12T05:48:05;59.07;;;23.67;;
3407;SDS011;1717;50.240;8.406;2023-02-12T05:50:34;54.67;;;24.80;;
3407;SDS011;1717;50.240;8.406;2023-02-12T05:53:04;56.17;;;25.77;;
3407;SDS011;1717;50.240;8.406;2023-02-12T05:55:37;61.53;;;24.17;;
3407;SDS011;1717;50.240;8.406;2023-02-12T05:58:06;66.10;;;25.77;;
3407;SDS011;1717;50.240;8.406;2023-02-12T06:00:33;58.97;;;23.50;;
3407;SDS011;1717;50.240;8.406;2023-02-12T06:03:02;57.63;;;25.37;;
3407;SDS011;1717;50.240;8.406;2023-02-12T06:05:35;42.97;;;22.10;;
3407;SDS011;1717;50.240;8.406;2023-02-12T06:08:04;55.03;;;23.03;;
3407;SDS011;1717;50.240;8.406;2023-02-12T06:10:31;54.20;;;25.50;;
3407;SDS011;1717;50.240;8.406;2023-02-12T06:12:59;62.23;;;24.77;;
3407;SDS011;1717;50.240;8.406;2023-02-12T06:15:29;58.53;;;26.07;;
3407;SDS011;1717;50.240;8.406;2023-02-12T06:17:56;48.83;;;21.50;;
3407;SDS011;1717;50.240;8.406;2023-02-12T06:20:23;49.07;;;22.40;;
3407;SDS011;1717;50.240;8.406;2023-02-12T06:22:50;49.13;;;21.23;;
3407;SDS011;1717;50.240;8.406;2023-02-12T06:25:17;52.90;;;20.70;;
3407;SDS011;1717;50.240;8.406;2023-02-12T06:27:44;61.63;;;25.87;;
3407;SDS011;1717;50.240;8.406;2023-02-12T06:30:12;44.67;;;24.47;;
3407;SDS011;1717;50.240;8.406;2023-02-12T06:32:41;45.90;;;21.30;;
3407;SDS011;1717;50.240;8.406;2023-02-12T06:35:08;39.13;;;17.97;;
3407;SDS011;1717;50.240;8.406;2023-02-12T06:37:35;35.47;;;17.63;;
3407;SDS011;1717;50.240;8.406;2023-02-12T06:40:02;38.80;;;17.93;;
3407;SDS011;1717;50.240;8.406;2023-02-12T06:42:30;49.10;;;19.83;;
3407;SDS011;1717;50.240;8.406;2023-02-12T06:44:57;35.63;;;17.07;;
3407;SDS011;1717;50.240;8.406;2023-02-12T06:47:24;41.53;;;18.77;;
3407;SDS011;1717;50.240;8.406;2023-02-12T06:49:53;42.90;;;19.43;;
3407;SDS011;1717;50.240;8.406;2023-02-12T06:52:20;45.97;;;19.00;;
3407;SDS011;1717;50.240;8.406;2023-02-12T06:54:47;37.90;;;17.67;;
3407;SDS011;1717;50.240;8.406;2023-02-12T06:57:14;36.30;;;15.93;;
3407;SDS011;1717;50.240;8.406;2023-02-12T06:59:41;36.13;;;15.97;;
3407;SDS011;1717;50.240;8.406;2023-02-12T07:02:11;35.00;;;20.37;;
3407;SDS011;1717;50.240;8.406;2023-02-12T07:04:38;38.90;;;16.33;;
3407;SDS011;1717;50.240;8.406;2023-02-12T07:07:07;37.37;;;18.50;;
3407;SDS011;1717;50.240;8.406;2023-02-12T07:09:34;33.43;;;15.40;;
3407;SDS011;1717;50.240;8.406;2023-02-12T07:12:01;32.97;;;14.97;;
3407;SDS011;1717;50.240;8.406;2023-02-12T07:14:28;29.97;;;13.27;;
3407;SDS011;1717;50.240;8.406;2023-02-12T07:16:55;31.60;;;16.00;;
3407;SDS011;1717;50.240;8.406;2023-02-12T07:19:23;32.70;;;15.20;;
3407;SDS011;1717;50.240;8.406;2023-02-12T07:21:51;28.43;;;15.93;;
3407;SDS011;1717;50.240;8.406;2023-02-12T07:24:19;26.93;;;13.97;;
3407;SDS011;1717;50.240;8.406;2023-02-12T07:26:46;33.10;;;16.23;;
3407;SDS011;1717;50.240;8.406;2023-02-12T07:29:13;29.07;;;16.17;;
3407;SDS011;1717;50.240;8.406;2023-02-12T07:31:41;28.10;;;14.60;;
3407;SDS011;1717;50.240;8.406;2023-02-12T07:34:08;29.53;;;12.33;;
3407;SDS011;1717;50.240;8.406;2023-02-12T07:36:36;28.20;;;14.90;;
3407;SDS011;1717;50.240;8.406;2023-02-12T07:39:03;29.30;;;14.27;;
3407;SDS011;1717;50.240;8.406;2023-02-12T07:41:32;28.60;;;14.83;;
3407;SDS011;1717;50.240;8.406;2023-02-12T07:44:01;28.57;;;15.00;;
3407;SDS011;1717;50.240;8.406;2023-02-12T07:46:32;31.43;;;15.30;;
3407;SDS011;1717;50.240;8.406;2023-02-12T07:49:02;30.47;;;16.87;;
3407;SDS011;1717;50.240;8.406;2023-02-12T07:51:30;31.47;;;14.60;;
3407;SDS011;1717;50.240;8.406;2023-02-12T07:53:58;36.43;;;17.00;;
3407;SDS011;1717;50.240;8.406;2023-02-12T07:56:26;27.83;;;14.83;;
3407;SDS011;1717;50.240;8.406;2023-02-12T07:58:58;31.67;;;16.10;;
3407;SDS011;1717;50.240;8.406;2023-02-12T08:01:28;31.93;;;16.23;;
3407;SDS011;1717;50.240;8.406;2023-02-12T08:03:57;35.70;;;17.17;;
3407;SDS011;1717;50.240;8.406;2023-02-12T08:06:26;31.73;;;15.00;;
3407;SDS011;1717;50.240;8.406;2023-02-12T08:08:56;28.67;;;15.53;;
3407;SDS011;1717;50.240;8.406;2023-02-12T08:11:25;32.17;;;16.37;;
3407;SDS011;1717;50.240;8.406;2023-02-12T08:13:54;28.00;;;15.80;;
3407;SDS011;1717;50.240;8.406;2023-02-12T08:16:23;30.73;;;17.67;;
3407;SDS011;1717;50.240;8.406;2023-02-12T08:18:51;39.07;;;17.50;;
3407;SDS011;1717;50.240;8.406;2023-02-12T08:21:20;39.33;;;18.53;;
3407;SDS011;1717;50.240;8.406;2023-02-12T08:23:48;44.63;;;18.20;;
3407;SDS011;1717;50.240;8.406;2023-02-12T08:26:16;39.23;;;18.77;;
3407;SDS011;1717;50.240;8.406;2023-02-12T08:28:45;39.43;;;19.77;;
3407;SDS011;1717;50.240;8.406;2023-02-12T08:31:14;35.83;;;19.20;;
3407;SDS011;1717;50.240;8.406;2023-02-12T08:33:45;40.73;;;20.27;;
3407;SDS011;1717;50.240;8.406;2023-02-12T08:36:16;36.13;;;18.87;;
3407;SDS011;1717;50.240;8.406;2023-02-12T08:41:26;39.33;;;17.90;;
3407;SDS011;1717;50.240;8.406;2023-02-12T08:43:54;40.50;;;19.30;;
3407;SDS011;1717;50.240;8.406;2023-02-12T08:46:24;42.13;;;18.90;;
3407;SDS011;1717;50.240;8.406;2023-02-12T08:48:55;37.60;;;20.17;;
3407;SDS011;1717;50.240;8.406;2023-02-12T08:51:24;31.00;;;16.30;;
3407;SDS011;1717;50.240;8.406;2023-02-12T08:53:57;30.30;;;17.00;;
3407;SDS011;1717;50.240;8.406;2023-02-12T08:56:30;28.70;;;15.10;;
3407;SDS011;1717;50.240;8.406;2023-02-12T08:58:59;26.10;;;13.80;;
3407;SDS011;1717;50.240;8.406;2023-02-12T09:01:28;21.40;;;13.27;;
3407;SDS011;1717;50.240;8.406;2023-02-12T09:03:58;22.47;;;13.70;;
3407;SDS011;1717;50.240;8.406;2023-02-12T09:06:26;21.57;;;14.37;;
3407;SDS011;1717;50.240;8.406;2023-02-12T09:08:54;24.53;;;14.70;;
3407;SDS011;1717;50.240;8.406;2023-02-12T09:11:21;22.57;;;13.63;;
3407;SDS011;1717;50.240;8.406;2023-02-12T09:13:55;23.63;;;13.00;;
3407;SDS011;1717;50.240;8.406;2023-02-12T09:16:25;22.80;;;13.40;;
3407;SDS011;1717;50.240;8.406;2023-02-12T09:18:53;36.50;;;20.90;;
3407;SDS011;1717;50.240;8.406;2023-02-12T09:21:22;28.50;;;17.10;;
3407;SDS011;1717;50.240;8.406;2023-02-12T09:23:49;34.73;;;20.73;;
3407;SDS011;1717;50.240;8.406;2023-02-12T09:26:18;34.70;;;19.37;;
3407;SDS011;1717;50.240;8.406;2023-02-12T09:28:46;35.50;;;19.30;;
3407;SDS011;1717;50.240;8.406;2023-02-12T09:31:14;33.83;;;18.33;;
3407;SDS011;1717;50.240;8.406;2023-02-12T09:33:44;32.93;;;16.20;;
3407;SDS011;1717;50.240;8.406;2023-02-12T09:36:13;31.27;;;17.23;;
3407;SDS011;1717;50.240;8.406;2023-02-12T09:38:42;29.70;;;18.10;;
3407;SDS011;1717;50.240;8.406;2023-02-12T09:41:13;28.90;;;18.50;;
3407;SDS011;1717;50.240;8.406;2023-02-12T09:44:19;31.57;;;17.53;;
3407;SDS011;1717;50.240;8.406;2023-02-12T09:46:51;30.40;;;18.07;;
3407;SDS011;1717;50.240;8.406;2023-02-12T09:49:26;25.37;;;16.20;;
3407;SDS011;1717;50.240;8.406;2023-02-12T09:52:07;28.10;;;15.60;;
3407;SDS011;1717;50.240;8.406;2023-02-12T09:54:41;26.77;;;16.77;;
3407;SDS011;1717;50.240;8.406;2023-02-12T09:57:11;29.37;;;15.60;;
3407;SDS011;1717;50.240;8.406;2023-02-12T09:59:44;21.63;;;13.67;;
3407;SDS011;1717;50.240;8.406;2023-02-12T10:02:15;26.60;;;14.57;;
3407;SDS011;1717;50.240;8.406;2023-02-12T10:04:44;27.23;;;16.17;;
3407;SDS011;1717;50.240;8.406;2023-02-12T10:07:14;30.83;;;16.77;;
3407;SDS011;1717;50.240;8.406;2023-02-12T10:09:58;29.97;;;16.27;;
3407;SDS011;1717;50.240;8.406;2023-02-12T10:12:37;37.33;;;17.20;;
3407;SDS011;1717;50.240;8.406;2023-02-12T10:15:13;36.97;;;20.40;;
3407;SDS011;1717;50.240;8.406;2023-02-12T10:17:47;31.43;;;17.30;;
3407;SDS011;1717;50.240;8.406;2023-02-12T10:20:31;37.23;;;17.73;;
3407;SDS011;1717;50.240;8.406;2023-02-12T10:23:09;31.70;;;18.03;;
3407;SDS011;1717;50.240;8.406;2023-02-12T10:25:51;34.53;;;17.93;;
3407;SDS011;1717;50.240;8.406;2023-02-12T10:28:30;41.50;;;19.90;;
3407;SDS011;1717;50.240;8.406;2023-02-12T10:31:01;39.67;;;20.10;;
3407;SDS011;1717;50.240;8.406;2023-02-12T10:33:34;38.93;;;18.43;;
3407;SDS011;1717;50.240;8.406;2023-02-12T10:36:08;35.23;;;18.43;;
3407;SDS011;1717;50.240;8.406;2023-02-12T10:38:44;39.53;;;18.77;;
3407;SDS011;1717;50.240;8.406;2023-02-12T10:41:17;40.63;;;18.47;;
3407;SDS011;1717;50.240;8.406;2023-02-12T10:43:44;41.90;;;18.60;;
3407;SDS011;1717;50.240;8.406;2023-02-12T10:46:12;35.33;;;18.87;;
3407;SDS011;1717;50.240;8.406;2023-02-12T10:48:41;30.07;;;16.73;;
3407;SDS011;1717;50.240;8.406;2023-02-12T10:51:15;28.83;;;15.90;;
3407;SDS011;1717;50.240;8.406;2023-02-12T10:57:09;29.50;;;15.73;;
3407;SDS011;1717;50.240;8.406;2023-02-12T10:59:38;38.43;;;18.17;;
3407;SDS011;1717;50.240;8.406;2023-02-12T11:02:14;30.53;;;16.37;;
3407;SDS011;1717;50.240;8.406;2023-02-12T11:04:45;29.40;;;16.67;;
3407;SDS011;1717;50.240;8.406;2023-02-12T11:07:12;29.80;;;15.37;;
3407;SDS011;1717;50.240;8.406;2023-02-12T11:09:40;31.20;;;15.33;;
3407;SDS011;1717;50.240;8.406;2023-02-12T11:12:22;31.47;;;16.03;;
3407;SDS011;1717;50.240;8.406;2023-02-12T11:14:55;26.23;;;14.70;;
3407;SDS011;1717;50.240;8.406;2023-02-12T11:17:25;33.53;;;16.23;;
3407;SDS011;1717;50.240;8.406;2023-02-12T11:20:06;31.37;;;18.10;;
3407;SDS011;1717;50.240;8.406;2023-02-12T11:22:49;28.87;;;16.00;;
3407;SDS011;1717;50.240;8.406;2023-02-12T11:25:18;28.97;;;14.90;;
3407;SDS011;1717;50.240;8.406;2023-02-12T11:27:50;26.30;;;13.00;;
3407;SDS011;1717;50.240;8.406;2023-02-12T11:30:25;22.47;;;13.63;;
3407;SDS011;1717;50.240;8.406;2023-02-12T11:32:52;23.30;;;13.10;;
3407;SDS011;1717;50.240;8.406;2023-02-12T11:35:19;19.77;;;12.23;;
3407;SDS011;1717;50.240;8.406;2023-02-12T11:37:55;21.20;;;11.53;;
3407;SDS011;1717;50.240;8.406;2023-02-12T11:40:25;23.13;;;14.97;;
3407;SDS011;1717;50.240;8.406;2023-02-12T11:42:55;23.73;;;12.77;;
3407;SDS011;1717;50.240;8.406;2023-02-12T11:45:25;25.17;;;13.47;;
3407;SDS011;1717;50.240;8.406;2023-02-12T11:47:56;20.93;;;12.40;;
3407;SDS011;1717;50.240;8.406;2023-02-12T11:50:24;21.60;;;11.20;;
3407;SDS011;1717;50.240;8.406;2023-02-12T11:52:53;17.40;;;11.13;;
3407;SDS011;1717;50.240;8.406;2023-02-12T11:55:24;17.10;;;12.10;;
3407;SDS011;1717;50.240;8.406;2023-02-12T11:58:00;23.90;;;14.37;;
3407;SDS011;1717;50.240;8.406;2023-02-12T12:00:30;14.20;;;9.53;;
3407;SDS011;1717;50.240;8.406;2023-02-12T12:03:03;21.43;;;10.50;;
3407;SDS011;1717;50.240;8.406;2023-02-12T12:05:37;25.87;;;14.90;;
3407;SDS011;1717;50.240;8.406;2023-02-12T12:08:11;22.90;;;13.80;;
3407;SDS011;1717;50.240;8.406;2023-02-12T12:10:43;26.47;;;14.40;;
3407;SDS011;1717;50.240;8.406;2023-02-12T12:13:16;26.47;;;14.60;;
3407;SDS011;1717;50.240;8.406;2023-02-12T12:15:49;24.00;;;13.43;;
3407;SDS011;1717;50.240;8.406;2023-02-12T12:18:48;26.53;;;14.57;;
3407;SDS011;1717;50.240;8.406;2023-02-12T12:21:38;19.37;;;11.10;;
3407;SDS011;1717;50.240;8.406;2023-02-12T12:24:12;21.27;;;13.13;;
3407;SDS011;1717;50.240;8.406;2023-02-12T12:26:45;26.30;;;15.13;;
3407;SDS011;1717;50.240;8.406;2023-02-12T12:29:28;27.67;;;16.47;;
3407;SDS011;1717;50.240;8.406;2023-02-12T12:32:13;27.13;;;15.07;;
3407;SDS011;1717;50.240;8.406;2023-02-12T12:34:43;21.07;;;13.37;;
3407;SDS011;1717;50.240;8.406;2023-02-12T12:37:18;24.67;;;13.70;;
3407;SDS011;1717;50.240;8.406;2023-02-12T12:39:59;25.50;;;14.27;;
3407;SDS011;1717;50.240;8.406;2023-02-12T12:42:53;20.40;;;12.10;;
3407;SDS011;1717;50.240;8.406;2023-02-12T12:48:42;5.30;;;3.67;;
3407;SDS011;1717;50.240;8.406;2023-02-12T12:51:27;7.13;;;3.30;;
3407;SDS011;1717;50.240;8.406;2023-02-12T12:54:07;4.10;;;3.20;;
3407;SDS011;1717;50.240;8.406;2023-02-12T12:56:48;17.73;;;8.80;;
3407;SDS011;1717;50.240;8.406;2023-02-12T12:59:30;16.20;;;10.30;;
3407;SDS011;1717;50.240;8.406;2023-02-12T13:02:32;13.77;;;10.00;;
3407;SDS011;1717;50.240;8.406;2023-02-12T13:05:27;10.30;;;6.83;;
3407;SDS011;1717;50.240;8.406;2023-02-12T13:08:14;11.53;;;6.77;;
3407;SDS011;1717;50.240;8.406;2023-02-12T13:10:49;3.60;;;3.20;;
3407;SDS011;1717;50.240;8.406;2023-02-12T13:13:20;5.17;;;2.67;;
3407;SDS011;1717;50.240;8.406;2023-02-12T13:15:54;3.87;;;3.30;;
3407;SDS011;1717;50.240;8.406;2023-02-12T13:18:33;5.73;;;3.27;;
3407;SDS011;1717;50.240;8.406;2023-02-12T13:21:08;5.13;;;2.87;;
3407;SDS011;1717;50.240;8.406;2023-02-12T13:23:42;5.20;;;4.13;;
3407;SDS011;1717;50.240;8.406;2023-02-12T13:26:17;4.00;;;2.70;;
3407;SDS011;1717;50.240;8.406;2023-02-12T13:28:56;4.60;;;2.80;;
3407;SDS011;1717;50.240;8.406;2023-02-12T13:31:27;4.00;;;3.17;;
3407;SDS011;1717;50.240;8.406;2023-02-12T13:33:58;5.97;;;4.93;;
3407;SDS011;1717;50.240;8.406;2023-02-12T13:36:27;4.10;;;2.90;;
3407;SDS011;1717;50.240;8.406;2023-02-12T13:38:55;3.37;;;2.90;;
3407;SDS011;1717;50.240;8.406;2023-02-12T13:41:26;3.53;;;2.70;;
3407;SDS011;1717;50.240;8.406;2023-02-12T13:44:00;3.50;;;2.70;;
3407;SDS011;1717;50.240;8.406;2023-02-12T13:46:36;3.43;;;3.00;;
3407;SDS011;1717;50.240;8.406;2023-02-12T13:49:15;3.87;;;3.07;;
3407;SDS011;1717;50.240;8.406;2023-02-12T13:51:50;3.70;;;2.67;;
3407;SDS011;1717;50.240;8.406;2023-02-12T13:54:28;3.97;;;3.20;;
3407;SDS011;1717;50.240;8.406;2023-02-12T13:57:07;5.40;;;3.50;;
3407;SDS011;1717;50.240;8.406;2023-02-12T13:59:38;3.83;;;2.50;;
3407;SDS011;1717;50.240;8.406;2023-02-12T14:02:26;4.20;;;3.43;;
3407;SDS011;1717;50.240;8.406;2023-02-12T14:05:31;3.80;;;3.03;;
3407;SDS011;1717;50.240;8.406;2023-02-12T14:07:59;3.17;;;2.87;;
3407;SDS011;1717;50.240;8.406;2023-02-12T14:10:30;4.40;;;3.30;;
3407;SDS011;1717;50.240;8.406;2023-02-12T14:13:13;4.50;;;3.80;;
3407;SDS011;1717;50.240;8.406;2023-02-12T14:15:44;5.17;;;3.60;;
3407;SDS011;1717;50.240;8.406;2023-02-12T14:18:25;5.60;;;4.47;;
3407;SDS011;1717;50.240;8.406;2023-02-12T14:27:26;3.90;;;3.17;;
3407;SDS011;1717;50.240;8.406;2023-02-12T14:29:59;3.10;;;2.57;;
3407;SDS011;1717;50.240;8.406;2023-02-12T14:35:44;5.87;;;3.57;;
3407;SDS011;1717;50.240;8.406;2023-02-12T14:41:25;6.60;;;4.80;;
3407;SDS011;1717;50.240;8.406;2023-02-12T14:50:15;8.70;;;5.90;;
3407;SDS011;1717;50.240;8.406;2023-02-12T14:52:49;8.37;;;6.00;;
3407;SDS011;1717;50.240;8.406;2023-02-12T14:55:20;9.10;;;5.90;;
3407;SDS011;1717;50.240;8.406;2023-02-12T14:57:50;9.60;;;6.10;;
3407;SDS011;1717;50.240;8.406;2023-02-12T15:00:24;8.87;;;6.60;;
3407;SDS011;1717;50.240;8.406;2023-02-12T15:02:57;10.23;;;7.10;;
3407;SDS011;1717;50.240;8.406;2023-02-12T15:05:30;9.63;;;6.87;;
3407;SDS011;1717;50.240;8.406;2023-02-12T15:08:01;8.57;;;6.70;;
3407;SDS011;1717;50.240;8.406;2023-02-12T15:10:33;10.27;;;7.43;;
3407;SDS011;1717;50.240;8.406;2023-02-12T15:13:07;11.17;;;7.33;;
3407;SDS011;1717;50.240;8.406;2023-02-12T15:15:42;9.07;;;6.57;;
3407;SDS011;1717;50.240;8.406;2023-02-12T15:18:15;9.87;;;7.00;;
3407;SDS011;1717;50.240;8.406;2023-02-12T15:20:49;15.70;;;9.00;;
3407;SDS011;1717;50.240;8.406;2023-02-12T15:26:11;14.20;;;8.60;;
3407;SDS011;1717;50.240;8.406;2023-02-12T15:28:40;18.90;;;11.20;;
3407;SDS011;1717;50.240;8.406;2023-02-12T15:31:08;17.90;;;11.43;;
3407;SDS011;1717;50.240;8.406;2023-02-12T15:33:40;15.23;;;10.93;;
3407;SDS011;1717;50.240;8.406;2023-02-12T15:36:15;21.30;;;13.07;;
3407;SDS011;1717;50.240;8.406;2023-02-12T15:38:46;23.03;;;13.83;;
3407;SDS011;1717;50.240;8.406;2023-02-12T15:41:23;25.17;;;14.80;;
3407;SDS011;1717;50.240;8.406;2023-02-12T15:43:53;26.00;;;16.57;;
3407;SDS011;1717;50.240;8.406;2023-02-12T15:46:21;24.47;;;14.73;;
3407;SDS011;1717;50.240;8.406;2023-02-12T15:48:48;27.03;;;15.37;;
3407;SDS011;1717;50.240;8.406;2023-02-12T15:51:16;23.17;;;15.00;;
3407;SDS011;1717;50.240;8.406;2023-02-12T15:53:48;26.23;;;15.30;;